Terminal Aerodrome Forecast
Issued by NWS

Home | Current Version | Previous Version | Text Only | Print | Product List | Glossary On
Versions: 1 2 3 4 5 6 7 8 9 10 11 12 13
000
FTUS42 KMLB 282336
TAFSFB
TAF
KSFB 282336Z 2900/2924 24005KT P6SM VCSH SCT040 BKN250
     FM290100 24004KT P6SM SCT040 SCT120
     FM291400 22007KT P6SM SCT030
     FM291800 23005KT P6SM VCTS SCT040CB SCT060=

USA.gov is the U.S. government's official web portal to all federal, state and local government web resources and services.